SCSE/LSC METAR and TAF weather

Enter ICAO airport designator
Station Type Date Time Source
SCSE METAR 2021/09/16 10:00 UTC NOAA

SCSE 161000Z AUTO 09004KT 9999 OVC009/// 09/07 Q1018


Station Type Date Time Source
SCSE Decoded METAR 2021/09/16 10:00 UTC NOAA

La Serena, Chile (SCSE) 29-54S 071-12W
Sep 16, 2021 - 06:00 AM EDT / 2021.09.16 1000 UTC
Wind: from the E (090 degrees) at 5 MPH (4 KT):0
Visibility: greater than 7 mile(s):0
Sky conditions: overcast
Temperature: 48 F (9 C)
Dew Point: 44 F (7 C)
Relative Humidity: 87%
Pressure (altimeter): 30.06 in. Hg (1018 hPa)
ob: SCSE 161000Z AUTO 09004KT 9999 OVC009/// 09/07 Q1018
cycle: 10

Station Type Date Time Source
SCSE TAF 2021/09/16 06:03 UTC NOAA

TAF TAF SCSE 160400Z 1606/1706 13002KT CAVOK TX17/1618Z TN10/1610Z
BECMG 1608/1610 BKN008
BECMG 1616/1618 30010KT SCT010
BECMG 1618/1620 CAVOK
BECMG 1702/1704 14004KT BKN010

Example: see airport list